CWAE

Whistler Airport

British Columbia, Canada
METAR CWAE 182300Z 00000KT 15SM OVC065 02/01 A2959 RMK SC8 WND ESTD SLP034
Observed Flight Rules
Jan-18 @ 23:00 UTC (38 minutes ago) Visual Flight Rules
Wind Visibility Clouds
Calm 15 miles
  • Overcast at 6,500' AGL
Temperatures Readings
Current 2°C / 36°F
Dewpoint 1°C / 34°F
Humidity 93%
Altimeter 29.59" Hg
Pressure 1003.4 hPa
Elevation 658
METAR CWAE 182300Z 00000KT 15SM OVC065 02/01 A2959 RMK SC8 WND ESTD SLP034
Observed Flight Rules
Jan-18 @ 23:00 UTC
(38 minutes ago)
VFR
Wind Visibility
Calm 15 miles
Clouds
  • Overcast at 6,500' AGL
Temperature Dewpoint
2°C / 36°F 1°C / 34°F
Humidity Altimeter Pressure
93% 29.59" Hg 1003.4 hPa